createdAt,value
2022-10-12T00:01:10.658Z,96.08
2022-10-12T00:03:38.866Z,96.11
2022-10-12T00:06:15.170Z,96.83
2022-10-12T00:08:45.171Z,96.50
2022-10-12T00:11:17.243Z,96.15
2022-10-12T00:13:45.175Z,96.53
2022-10-12T00:16:14.960Z,96.77
2022-10-12T00:18:43.218Z,96.45
2022-10-12T00:21:16.712Z,96.74
2022-10-12T00:23:45.661Z,96.63
2022-10-12T00:26:23.380Z,96.91
2022-10-12T00:28:59.882Z,96.95
2022-10-12T00:31:29.827Z,96.82
2022-10-12T00:34:01.613Z,96.86
2022-10-12T00:36:32.693Z,96.83
2022-10-12T00:39:01.456Z,97.13
2022-10-12T00:41:33.302Z,97.38
2022-10-12T00:44:01.406Z,97.25
2022-10-12T00:46:35.234Z,97.05
2022-10-12T00:49:20.885Z,96.97
2022-10-12T00:51:53.721Z,96.75
2022-10-12T00:54:27.319Z,96.26
2022-10-12T00:56:56.898Z,96.07
2022-10-12T00:59:32.611Z,95.80
2022-10-12T01:02:00.565Z,95.90
2022-10-12T01:04:31.716Z,96.35
2022-10-12T01:07:00.288Z,96.69
2022-10-12T01:09:29.734Z,96.83
2022-10-12T01:11:58.673Z,96.61
2022-10-12T01:14:26.660Z,96.51
2022-10-12T01:17:00.204Z,96.87
2022-10-12T01:20:09.030Z,97.25
2022-10-12T01:23:04.501Z,97.31
2022-10-12T01:25:53.205Z,97.59
2022-10-12T01:28:51.909Z,97.72
2022-10-12T01:31:49.840Z,97.70
2022-10-12T01:34:42.615Z,97.80
2022-10-12T01:37:38.844Z,97.88
2022-10-12T01:40:16.502Z,97.84
2022-10-12T01:42:45.087Z,98.47
2022-10-12T01:45:17.229Z,98.47
2022-10-12T01:47:55.014Z,98.22
2022-10-12T01:50:32.104Z,98.31
2022-10-12T01:53:23.045Z,98.33
2022-10-12T01:56:39.067Z,98.16
2022-10-12T01:59:12.845Z,98.11
2022-10-12T02:01:48.918Z,98.22
2022-10-12T02:04:44.478Z,98.24
2022-10-12T02:07:26.785Z,98.16
2022-10-12T02:09:59.233Z,98.72
2022-10-12T02:12:30.792Z,98.54
2022-10-12T02:15:03.741Z,98.62
2022-10-12T02:17:33.910Z,98.93
2022-10-12T02:20:04.016Z,98.60
2022-10-12T02:22:37.381Z,98.75
2022-10-12T02:25:11.139Z,97.88
2022-10-12T02:27:43.262Z,97.60
2022-10-12T02:30:12.127Z,97.98
2022-10-12T02:33:03.725Z,98.37
2022-10-12T02:35:41.925Z,97.73
2022-10-12T02:38:20.689Z,97.88
2022-10-12T02:40:57.773Z,97.82
2022-10-12T02:43:35.115Z,97.63
2022-10-12T02:46:05.869Z,97.20
2022-10-12T02:48:35.494Z,97.33
2022-10-12T02:51:04.024Z,97.27
2022-10-12T02:53:32.015Z,97.53
2022-10-12T02:56:03.753Z,97.46
2022-10-12T02:58:32.100Z,97.45
2022-10-12T03:01:00.059Z,97.39
2022-10-12T03:03:28.212Z,97.58
2022-10-12T03:05:56.512Z,97.66
2022-10-12T03:08:24.378Z,97.11
2022-10-12T03:10:52.243Z,96.98
2022-10-12T03:13:20.093Z,97.25
2022-10-12T03:15:47.920Z,97.40
2022-10-12T03:18:15.790Z,96.94
2022-10-12T03:20:48.195Z,97.22
2022-10-12T03:23:16.041Z,97.13
2022-10-12T03:25:43.885Z,96.82
2022-10-12T03:28:12.139Z,97.02
2022-10-12T03:30:40.292Z,97.20
2022-10-12T03:33:08.174Z,97.13
2022-10-12T03:35:36.043Z,96.98
2022-10-12T03:38:04.306Z,96.79
2022-10-12T03:40:32.160Z,96.74
2022-10-12T03:43:00.062Z,96.93
2022-10-12T03:45:27.910Z,97.39
2022-10-12T03:47:56.009Z,97.41
2022-10-12T03:50:23.840Z,96.94
2022-10-12T03:52:51.656Z,97.07
2022-10-12T03:55:19.808Z,96.99
2022-10-12T03:57:47.609Z,96.95
2022-10-12T04:00:15.776Z,96.89
2022-10-12T04:02:43.682Z,97.11
2022-10-12T04:05:11.636Z,97.26
2022-10-12T04:07:39.877Z,97.03
2022-10-12T04:10:08.238Z,96.74
2022-10-12T04:12:36.119Z,96.68
2022-10-12T04:15:04.629Z,96.86
2022-10-12T04:17:32.572Z,97.05
2022-10-12T04:20:00.375Z,97.51
2022-10-12T04:22:28.242Z,97.58
2022-10-12T04:24:56.042Z,97.77
2022-10-12T04:27:23.859Z,97.64
2022-10-12T04:29:51.745Z,97.85
2022-10-12T04:32:19.561Z,98.05
2022-10-12T04:34:47.382Z,97.94
2022-10-12T04:37:15.270Z,98.28
2022-10-12T04:39:43.143Z,98.56
2022-10-12T04:42:10.983Z,98.44
2022-10-12T04:44:38.780Z,98.94
2022-10-12T04:47:07.146Z,98.93
2022-10-12T04:49:35.029Z,99.29
2022-10-12T04:52:02.998Z,98.93
2022-10-12T04:54:32.876Z,99.10
2022-10-12T04:57:00.943Z,98.99
2022-10-12T04:59:28.860Z,98.62
2022-10-12T05:01:56.747Z,98.14
2022-10-12T05:04:24.746Z,97.95
2022-10-12T05:06:52.650Z,98.39
2022-10-12T05:09:20.522Z,98.62
2022-10-12T05:11:48.457Z,98.46
2022-10-12T05:14:16.264Z,98.34
2022-10-12T05:16:44.117Z,98.01
2022-10-12T05:19:11.946Z,97.65
2022-10-12T05:21:40.485Z,97.57
2022-10-12T05:24:08.451Z,97.80
2022-10-12T05:26:36.561Z,97.85
2022-10-12T05:29:04.451Z,98.16
2022-10-12T05:31:32.256Z,98.02
2022-10-12T05:34:00.241Z,98.07
2022-10-12T05:36:28.189Z,98.05
2022-10-12T05:38:56.065Z,97.77
2022-10-12T05:41:23.937Z,98.07
2022-10-12T05:43:53.325Z,97.89
2022-10-12T05:46:21.700Z,98.12
2022-10-12T05:48:49.522Z,98.10
2022-10-12T05:51:17.349Z,98.13
2022-10-12T05:53:45.359Z,98.27
2022-10-12T05:56:13.242Z,98.72
2022-10-12T05:58:41.193Z,98.67
2022-10-12T06:01:14.177Z,98.63
2022-10-12T06:03:42.336Z,98.40
2022-10-12T06:06:10.303Z,98.12
2022-10-12T06:08:38.174Z,98.36
2022-10-12T06:11:06.165Z,98.29
2022-10-12T06:13:34.044Z,98.24
2022-10-12T06:16:01.919Z,98.27
2022-10-12T06:18:29.891Z,98.43
2022-10-12T06:21:58.924Z,98.35
2022-10-12T06:23:45.589Z,98.18
2022-10-12T06:26:16.552Z,97.93
2022-10-12T06:28:44.478Z,98.19
2022-10-12T06:31:12.709Z,98.26
2022-10-12T06:33:40.728Z,98.11
2022-10-12T06:36:08.575Z,98.30
2022-10-12T06:38:36.522Z,98.39
2022-10-12T06:41:04.418Z,98.25
2022-10-12T06:43:32.278Z,98.55
2022-10-12T06:46:27.754Z,98.63
2022-10-12T06:48:55.651Z,98.30
2022-10-12T06:51:23.936Z,98.19
2022-10-12T06:53:55.422Z,98.29
2022-10-12T06:56:23.513Z,98.24
2022-10-12T06:58:55.938Z,98.09
2022-10-12T07:01:24.025Z,97.81
2022-10-12T07:04:00.724Z,98.17
2022-10-12T07:06:28.894Z,98.09
2022-10-12T07:09:01.257Z,97.96
2022-10-12T07:11:29.152Z,97.99
2022-10-12T07:13:58.143Z,98.08
2022-10-12T07:16:26.033Z,97.93
2022-10-12T07:18:54.051Z,97.67
2022-10-12T07:21:21.959Z,97.94
2022-10-12T07:23:49.789Z,98.00
2022-10-12T07:26:17.931Z,97.74
2022-10-12T07:28:45.898Z,97.31
2022-10-12T07:31:14.063Z,97.28
2022-10-12T07:33:41.981Z,97.52
2022-10-12T07:36:14.745Z,97.42
2022-10-12T07:38:47.209Z,97.14
2022-10-12T07:41:15.645Z,97.21
2022-10-12T07:43:43.759Z,97.41
2022-10-12T07:46:12.502Z,97.45
2022-10-12T07:48:47.221Z,96.87
2022-10-12T07:51:17.474Z,97.15
2022-10-12T07:53:45.677Z,97.16
2022-10-12T07:56:17.362Z,96.92
2022-10-12T07:58:50.128Z,97.15
2022-10-12T08:01:19.958Z,96.85
2022-10-12T08:03:50.743Z,96.57
2022-10-12T08:06:24.225Z,96.49
2022-10-12T08:08:52.254Z,96.32
2022-10-12T08:11:20.999Z,96.44
2022-10-12T08:13:48.823Z,95.86
2022-10-12T08:16:19.371Z,95.45
2022-10-12T08:18:47.328Z,95.43
2022-10-12T08:21:17.098Z,94.81
2022-10-12T08:23:45.290Z,94.61
2022-10-12T08:26:14.747Z,94.80
2022-10-12T08:28:43.321Z,94.73
2022-10-12T08:31:13.921Z,94.31
2022-10-12T08:33:41.888Z,93.55
2022-10-12T08:36:11.662Z,93.48
2022-10-12T08:38:39.672Z,92.99
2022-10-12T08:41:23.404Z,92.35
2022-10-12T08:44:06.434Z,91.46
2022-10-12T08:46:34.421Z,91.68
2022-10-12T08:49:29.510Z,90.74
2022-10-12T08:51:59.535Z,90.35
2022-10-12T08:54:31.587Z,90.56
2022-10-12T08:57:00.099Z,90.68
2022-10-12T08:59:29.661Z,89.64
2022-10-12T09:02:14.035Z,87.74
2022-10-12T09:04:56.714Z,88.47
2022-10-12T09:07:50.829Z,87.97
2022-10-12T09:10:46.303Z,86.47
2022-10-12T09:13:39.994Z,85.46
2022-10-12T09:16:24.028Z,85.46
2022-10-12T09:18:55.180Z,85.03
2022-10-12T09:21:26.182Z,85.13
2022-10-12T09:23:56.796Z,83.27
2022-10-12T09:26:36.750Z,82.57
2022-10-12T09:29:27.096Z,81.00
2022-10-12T09:32:16.143Z,81.38
2022-10-12T09:34:46.046Z,79.12
2022-10-12T09:37:23.360Z,78.49
2022-10-12T09:39:51.471Z,76.77
2022-10-12T09:42:19.319Z,76.08
2022-10-12T09:45:12.493Z,75.29
2022-10-12T09:47:40.606Z,75.71
2022-10-12T09:50:08.745Z,75.32
2022-10-12T09:52:36.684Z,74.62
2022-10-12T09:55:17.087Z,72.80
2022-10-12T09:57:54.687Z,72.43
2022-10-12T10:00:32.571Z,72.33
2022-10-12T10:03:02.451Z,71.57
2022-10-12T10:05:30.481Z,71.82
2022-10-12T10:08:20.941Z,71.56
2022-10-12T10:10:50.977Z,70.31
2022-10-12T10:13:20.046Z,71.39
2022-10-12T10:15:51.038Z,71.23
2022-10-12T10:18:25.732Z,68.87
2022-10-12T10:20:56.111Z,68.81
2022-10-12T10:23:29.137Z,68.08
2022-10-12T10:25:58.422Z,68.72
2022-10-12T10:28:30.421Z,66.80
2022-10-12T10:31:03.151Z,67.34
2022-10-12T10:33:33.384Z,66.61
2022-10-12T10:36:13.793Z,66.14
2022-10-12T10:38:56.149Z,64.39
2022-10-12T10:41:28.736Z,64.68
2022-10-12T10:43:56.595Z,65.26
2022-10-12T10:46:28.220Z,64.65
2022-10-12T10:49:06.352Z,64.88
2022-10-12T10:51:49.556Z,62.60
2022-10-12T10:54:23.081Z,61.71
2022-10-12T10:57:02.315Z,61.93
2022-10-12T11:00:19.457Z,63.11
2022-10-12T11:02:51.148Z,62.49
2022-10-12T11:05:28.245Z,61.66
2022-10-12T11:08:06.800Z,61.60
2022-10-12T11:10:45.066Z,59.12
2022-10-12T11:13:20.020Z,59.95
2022-10-12T11:16:07.945Z,59.86
2022-10-12T11:18:42.517Z,59.96
2022-10-12T11:21:22.654Z,59.78
2022-10-12T11:24:05.307Z,57.88
2022-10-12T11:26:57.026Z,56.61
2022-10-12T11:29:24.904Z,58.63
2022-10-12T11:31:59.552Z,58.58
2022-10-12T11:34:32.496Z,58.96
2022-10-12T11:37:19.908Z,58.05
2022-10-12T11:39:54.521Z,57.64
2022-10-12T11:42:32.325Z,56.27
2022-10-12T11:45:06.106Z,56.66
2022-10-12T11:47:39.365Z,55.82
2022-10-12T11:50:25.423Z,54.96
2022-10-12T11:52:55.589Z,54.99
2022-10-12T11:55:29.220Z,54.76
2022-10-12T11:58:07.442Z,54.04
2022-10-12T12:00:53.514Z,55.02
2022-10-12T12:03:31.750Z,54.22
2022-10-12T12:06:29.137Z,54.52
2022-10-12T12:09:01.090Z,54.59
2022-10-12T12:11:31.877Z,51.78
2022-10-12T12:14:21.636Z,52.50
2022-10-12T12:16:49.851Z,52.54
2022-10-12T12:19:36.386Z,51.66
2022-10-12T12:22:28.909Z,51.89
2022-10-12T12:25:10.765Z,52.85
2022-10-12T12:27:42.188Z,52.96
2022-10-12T12:30:19.190Z,50.17
2022-10-12T12:33:38.574Z,51.36
2022-10-12T12:36:09.048Z,51.75
2022-10-12T12:38:45.817Z,51.11
2022-10-12T12:41:21.914Z,49.86
2022-10-12T12:43:58.609Z,49.15
2022-10-12T12:46:52.335Z,49.65
2022-10-12T12:49:38.290Z,47.71
2022-10-12T12:52:16.723Z,47.72
2022-10-12T12:55:00.591Z,48.63
2022-10-12T12:58:16.336Z,49.55
2022-10-12T13:01:02.201Z,48.78
2022-10-12T13:03:41.851Z,49.21
2022-10-12T13:06:29.306Z,48.99
2022-10-12T13:09:06.064Z,47.58
2022-10-12T13:12:11.020Z,47.84
2022-10-12T13:14:51.138Z,48.56
2022-10-12T13:17:34.315Z,48.27
2022-10-12T13:20:15.868Z,48.27
2022-10-12T13:22:46.933Z,47.87
2022-10-12T13:25:25.702Z,46.52
2022-10-12T13:27:55.125Z,45.94
2022-10-12T13:30:51.554Z,45.78
2022-10-12T13:33:32.091Z,45.67
2022-10-12T13:36:08.742Z,45.74
2022-10-12T13:38:39.171Z,44.79
2022-10-12T13:41:14.720Z,45.44
2022-10-12T13:43:51.304Z,45.00
2022-10-12T13:46:41.035Z,44.31
2022-10-12T13:49:41.964Z,44.97
2022-10-12T13:52:12.533Z,44.30
2022-10-12T13:54:47.440Z,42.98
2022-10-12T13:57:40.776Z,43.81
2022-10-12T14:00:19.612Z,44.28
2022-10-12T14:03:02.207Z,43.18
2022-10-12T14:05:32.348Z,42.54
2022-10-12T14:08:11.580Z,43.11
2022-10-12T14:10:41.390Z,43.30
2022-10-12T14:13:15.223Z,43.71
2022-10-12T14:15:43.576Z,43.17
2022-10-12T14:18:40.668Z,42.84
2022-10-12T14:21:11.837Z,42.65
2022-10-12T14:23:45.609Z,42.91
2022-10-12T14:26:43.701Z,42.48
2022-10-12T14:29:33.334Z,42.43
2022-10-12T14:32:04.835Z,42.28
2022-10-12T14:34:36.829Z,42.14
2022-10-12T14:37:13.402Z,41.64
2022-10-12T14:39:42.944Z,41.68
2022-10-12T14:42:31.190Z,41.80
2022-10-12T14:44:59.748Z,41.57
2022-10-12T14:47:32.019Z,41.78
2022-10-12T14:50:01.495Z,41.60
2022-10-12T14:52:47.261Z,41.53
2022-10-12T14:55:16.491Z,40.86
2022-10-12T14:57:44.939Z,40.99
2022-10-12T15:00:18.365Z,41.40
2022-10-12T15:02:47.033Z,41.30
2022-10-12T15:05:17.734Z,41.35
2022-10-12T15:07:47.011Z,41.25
2022-10-12T15:10:16.112Z,41.41
2022-10-12T15:12:44.389Z,41.20
2022-10-12T15:15:29.067Z,41.20
2022-10-12T15:17:58.222Z,40.69
2022-10-12T15:20:27.393Z,40.57
2022-10-12T15:22:55.987Z,40.26
2022-10-12T15:25:46.120Z,40.92
2022-10-12T15:28:14.201Z,41.08
2022-10-12T15:31:04.170Z,41.19
2022-10-12T15:33:30.957Z,41.25
2022-10-12T15:35:58.789Z,41.41
2022-10-12T15:38:26.577Z,41.62
2022-10-12T15:40:58.039Z,41.76
2022-10-12T15:43:26.121Z,41.78
2022-10-12T15:45:56.573Z,42.04
2022-10-12T15:48:24.546Z,42.44
2022-10-12T15:50:52.437Z,42.61
2022-10-12T15:53:24.424Z,43.28
2022-10-12T15:55:53.948Z,43.26
2022-10-12T15:58:22.232Z,43.61
2022-10-12T16:00:50.502Z,44.26
2022-10-12T16:03:25.653Z,44.58
2022-10-12T16:05:54.686Z,45.24
2022-10-12T16:08:23.512Z,45.87
2022-10-12T16:10:51.706Z,46.56
2022-10-12T16:13:19.518Z,46.61
2022-10-12T16:15:47.438Z,47.57
2022-10-12T16:18:15.971Z,48.75
2022-10-12T16:20:47.568Z,50.58
2022-10-12T16:23:22.778Z,50.94
2022-10-12T16:25:51.107Z,51.59
2022-10-12T16:28:19.030Z,52.04
2022-10-12T16:30:46.919Z,52.60
2022-10-12T16:33:14.794Z,52.69
2022-10-12T16:35:42.702Z,54.09
2022-10-12T16:38:11.411Z,55.69
2022-10-12T16:40:40.102Z,55.90
2022-10-12T16:43:08.902Z,55.75
2022-10-12T16:45:36.827Z,56.30
2022-10-12T16:48:05.163Z,57.27
2022-10-12T16:50:33.059Z,58.24
2022-10-12T16:53:00.928Z,59.06
2022-10-12T16:55:28.830Z,59.22
2022-10-12T16:57:56.987Z,60.90
2022-10-12T17:00:25.385Z,61.79
2022-10-12T17:02:57.240Z,61.54
2022-10-12T17:05:25.616Z,61.24
2022-10-12T17:07:53.484Z,61.65
2022-10-12T17:10:21.318Z,62.66
2022-10-12T17:12:49.175Z,63.41
2022-10-12T17:15:17.246Z,64.50
2022-10-12T17:17:45.117Z,64.62
2022-10-12T17:20:12.953Z,64.58
2022-10-12T17:22:40.827Z,64.86
2022-10-12T17:25:09.474Z,65.46
2022-10-12T17:27:37.620Z,65.77
2022-10-12T17:30:05.834Z,65.51
2022-10-12T17:32:37.813Z,65.93
2022-10-12T17:35:06.034Z,65.96
2022-10-12T17:37:34.070Z,67.12
2022-10-12T17:40:02.938Z,67.42
2022-10-12T17:42:30.944Z,67.62
2022-10-12T17:44:58.863Z,67.39
2022-10-12T17:47:26.771Z,68.10
2022-10-12T17:49:54.603Z,68.99
2022-10-12T17:52:22.420Z,69.51
2022-10-12T17:54:50.301Z,69.92
2022-10-12T17:57:18.588Z,70.83
2022-10-12T17:59:46.672Z,71.13
2022-10-12T18:02:14.477Z,70.69
2022-10-12T18:04:42.366Z,70.51
2022-10-12T18:07:11.030Z,71.23
2022-10-12T18:09:39.015Z,71.33
2022-10-12T18:12:06.971Z,71.51
2022-10-12T18:14:34.946Z,71.47
2022-10-12T18:17:02.804Z,70.84
2022-10-12T18:19:30.663Z,70.77
2022-10-12T18:21:58.507Z,71.61
2022-10-12T18:24:26.497Z,72.66
2022-10-12T18:26:54.275Z,72.61
2022-10-12T18:29:22.676Z,72.72
2022-10-12T18:31:50.510Z,73.50
2022-10-12T18:34:18.395Z,72.93
2022-10-12T18:36:46.290Z,72.61
2022-10-12T18:39:14.346Z,72.31
2022-10-12T18:41:42.258Z,71.65
2022-10-12T18:44:11.141Z,71.39
2022-10-12T18:46:39.745Z,71.25
2022-10-12T18:49:10.304Z,71.22
2022-10-12T18:51:41.325Z,70.95
2022-10-12T18:54:13.118Z,70.92
2022-10-12T18:56:41.848Z,71.11
2022-10-12T18:59:11.612Z,70.98
2022-10-12T19:01:39.426Z,71.08
2022-10-12T19:04:08.182Z,70.95
2022-10-12T19:06:39.300Z,71.00
2022-10-12T19:09:07.463Z,71.68
2022-10-12T19:11:36.822Z,72.07
2022-10-12T19:14:13.713Z,72.47
2022-10-12T19:16:42.857Z,72.48
2022-10-12T19:19:19.657Z,72.63
2022-10-12T19:21:50.328Z,72.49
2022-10-12T19:24:19.234Z,72.49
2022-10-12T19:26:48.132Z,72.54
2022-10-12T19:29:16.231Z,72.97
2022-10-12T19:31:47.243Z,73.65
2022-10-12T19:34:18.169Z,73.76
2022-10-12T19:36:46.845Z,74.19
2022-10-12T19:39:24.347Z,74.18
2022-10-12T19:41:53.255Z,73.69
2022-10-12T19:44:21.438Z,74.29
2022-10-12T19:46:51.551Z,74.25
2022-10-12T19:49:19.793Z,73.75
2022-10-12T19:51:47.670Z,73.77
2022-10-12T19:54:16.262Z,73.97
2022-10-12T19:56:44.449Z,73.72
2022-10-12T19:59:12.947Z,73.95
2022-10-12T20:01:40.800Z,73.78
2022-10-12T20:04:11.961Z,73.78
2022-10-12T20:06:40.718Z,73.85
2022-10-12T20:09:09.948Z,74.12
2022-10-12T20:11:38.746Z,73.88
2022-10-12T20:14:07.182Z,73.73
2022-10-12T20:16:37.237Z,74.18
2022-10-12T20:19:07.367Z,73.98
2022-10-12T20:21:36.766Z,73.90
2022-10-12T20:24:07.876Z,73.91
2022-10-12T20:26:35.934Z,74.20
2022-10-12T20:29:04.002Z,74.25
2022-10-12T20:31:31.833Z,74.02
2022-10-12T20:34:00.044Z,74.15
2022-10-12T20:36:30.371Z,74.14
2022-10-12T20:38:59.842Z,73.98
2022-10-12T20:41:28.917Z,74.17
2022-10-12T20:43:58.431Z,74.26
2022-10-12T20:46:27.730Z,74.25
2022-10-12T20:48:58.930Z,74.44
2022-10-12T20:51:34.503Z,74.46
2022-10-12T20:54:05.280Z,74.40
2022-10-12T20:56:33.650Z,74.69
2022-10-12T20:59:01.852Z,74.33
2022-10-12T21:01:29.899Z,74.39
2022-10-12T21:03:58.087Z,74.66
2022-10-12T21:06:26.420Z,74.66
2022-10-12T21:08:56.418Z,75.11
2022-10-12T21:11:25.978Z,75.34
2022-10-12T21:13:54.713Z,75.32
2022-10-12T21:16:22.687Z,75.35
2022-10-12T21:18:54.341Z,75.43
2022-10-12T21:21:23.709Z,75.67
2022-10-12T21:23:57.975Z,75.96
2022-10-12T21:26:29.467Z,75.99
2022-10-12T21:29:00.582Z,76.42
2022-10-12T21:31:32.423Z,76.06
2022-10-12T21:34:03.369Z,76.02
2022-10-12T21:36:33.412Z,76.10
2022-10-12T21:39:01.308Z,76.05
2022-10-12T21:41:30.723Z,76.11
2022-10-12T21:43:59.103Z,76.19
2022-10-12T21:46:29.426Z,76.23
2022-10-12T21:48:57.760Z,76.31
2022-10-12T21:51:27.099Z,76.58
2022-10-12T21:53:55.422Z,76.31
2022-10-12T21:56:33.363Z,76.43
2022-10-12T21:59:02.850Z,76.42
2022-10-12T22:01:36.458Z,76.62
2022-10-12T22:04:07.397Z,76.44
2022-10-12T22:06:35.278Z,76.65
2022-10-12T22:09:11.568Z,76.58
2022-10-12T22:11:39.523Z,76.58
2022-10-12T22:14:13.475Z,76.65
2022-10-12T22:16:43.346Z,76.85
2022-10-12T22:19:15.301Z,76.82
2022-10-12T22:21:43.094Z,76.79
2022-10-12T22:24:10.933Z,77.01
2022-10-12T22:26:38.958Z,76.76
2022-10-12T22:29:08.714Z,76.84
2022-10-12T22:31:41.172Z,76.81
2022-10-12T22:34:11.586Z,76.80
2022-10-12T22:36:39.544Z,77.09
2022-10-12T22:39:07.647Z,76.79
2022-10-12T22:41:35.555Z,77.10
2022-10-12T22:44:03.492Z,77.18
2022-10-12T22:46:31.448Z,77.11
2022-10-12T22:48:59.318Z,77.00
2022-10-12T22:51:32.804Z,77.25
2022-10-12T22:54:01.345Z,77.03
2022-10-12T22:56:29.261Z,76.99
2022-10-12T22:58:59.206Z,77.01
2022-10-12T23:01:27.971Z,77.20
2022-10-12T23:03:56.534Z,77.07
2022-10-12T23:06:24.939Z,76.95
2022-10-12T23:08:52.799Z,77.14
2022-10-12T23:11:24.211Z,77.34
2022-10-12T23:13:53.287Z,77.28
2022-10-12T23:16:26.547Z,77.21
2022-10-12T23:18:59.877Z,77.12
2022-10-12T23:21:29.539Z,77.22
2022-10-12T23:23:59.559Z,77.50
2022-10-12T23:26:28.687Z,77.54
2022-10-12T23:28:57.003Z,77.55
2022-10-12T23:31:28.401Z,77.85
2022-10-12T23:34:04.778Z,77.57
2022-10-12T23:36:34.913Z,77.52
2022-10-12T23:39:04.834Z,77.76
2022-10-12T23:41:33.076Z,77.73
2022-10-12T23:44:01.006Z,77.47
2022-10-12T23:46:29.045Z,77.96
2022-10-12T23:48:58.632Z,77.94
2022-10-12T23:51:26.477Z,77.62
2022-10-12T23:53:54.284Z,77.71
2022-10-12T23:56:22.443Z,77.43
2022-10-12T23:58:50.265Z,77.74
